createdAt,value
2022-08-28T00:03:50.610Z,7.65
2022-08-28T00:09:00.371Z,7.87
2022-08-28T00:14:09.480Z,7.87
2022-08-28T00:19:17.962Z,7.54
2022-08-28T00:24:27.085Z,7.54
2022-08-28T00:29:36.839Z,7.68
2022-08-28T00:34:45.954Z,7.68
2022-08-28T00:39:54.839Z,7.79
2022-08-28T00:45:04.200Z,7.79
2022-08-28T00:50:13.325Z,7.78
2022-08-28T00:55:23.074Z,7.78
2022-08-28T01:00:32.866Z,7.94
2022-08-28T01:05:41.310Z,7.94
2022-08-28T01:10:49.797Z,7.77
2022-08-28T01:15:59.956Z,7.77
2022-08-28T01:21:08.038Z,7.76
2022-08-28T01:26:19.722Z,7.76
2022-08-28T01:31:29.851Z,7.75
2022-08-28T01:36:39.253Z,7.75
2022-08-28T01:41:49.005Z,7.98
2022-08-28T01:47:00.027Z,7.98
2022-08-28T01:52:11.928Z,7.88
2022-08-28T01:57:18.493Z,7.88
2022-08-28T02:02:26.753Z,7.69
2022-08-28T02:07:37.167Z,7.83
2022-08-28T02:12:45.643Z,7.83
2022-08-28T02:17:54.752Z,8.04
2022-08-28T02:23:09.308Z,8.04
2022-08-28T02:28:25.899Z,7.86
2022-08-28T02:33:41.722Z,7.86
2022-08-28T02:38:59.163Z,7.63
2022-08-28T02:44:15.901Z,7.63
2022-08-28T02:49:36.104Z,7.87
2022-08-28T02:54:47.556Z,7.87
2022-08-28T03:00:04.999Z,8.05
2022-08-28T03:05:21.239Z,8.05
2022-08-28T03:10:37.132Z,7.83
2022-08-28T03:15:52.843Z,7.83
2022-08-28T03:20:20.283Z,7.59
2022-08-28T03:24:57.158Z,7.59
2022-08-28T03:30:06.914Z,7.6
2022-08-28T03:35:16.676Z,7.6
2022-08-28T03:40:25.825Z,7.95
2022-08-28T03:45:35.206Z,7.95
2022-08-28T03:50:43.868Z,8.09
2022-08-28T03:55:52.516Z,8.09
2022-08-28T04:01:02.000Z,7.75
2022-08-28T04:06:12.039Z,7.75
2022-08-28T04:11:21.165Z,7.65
2022-08-28T04:16:30.592Z,7.65
2022-08-28T04:21:40.032Z,7.86
2022-08-28T04:26:49.178Z,7.86
2022-08-28T04:31:59.303Z,7.96
2022-08-28T04:37:08.045Z,7.96
2022-08-28T04:42:17.790Z,8.04
2022-08-28T04:47:28.188Z,8.04
2022-08-28T04:52:37.319Z,7.72
2022-08-28T04:57:47.099Z,7.72
2022-08-28T05:02:56.842Z,7.54
2022-08-28T05:08:07.704Z,7.8
2022-08-28T05:13:16.339Z,7.8
2022-08-28T05:18:26.113Z,7.87
2022-08-28T05:23:35.875Z,7.87
2022-08-28T05:28:43.709Z,7.67
2022-08-28T05:33:54.106Z,7.67
2022-08-28T05:39:03.881Z,8
2022-08-28T05:44:12.983Z,8
2022-08-28T05:49:22.121Z,7.77
2022-08-28T05:54:31.887Z,7.77
2022-08-28T05:59:41.636Z,7.58
2022-08-28T06:04:50.107Z,7.58
2022-08-28T06:09:58.599Z,7.87
2022-08-28T06:15:06.442Z,7.87
2022-08-28T06:20:16.191Z,7.44
2022-08-28T06:25:25.329Z,7.44
2022-08-28T06:30:34.430Z,7.65
2022-08-28T06:35:43.543Z,7.65
2022-08-28T06:40:53.965Z,7.78
2022-08-28T06:46:04.117Z,7.78
2022-08-28T06:51:17.313Z,7.9
2022-08-28T06:56:36.439Z,7.9
2022-08-28T07:01:52.568Z,7.59
2022-08-28T07:07:09.971Z,7.59
2022-08-28T07:12:26.130Z,7.57
2022-08-28T07:17:43.636Z,7.57
2022-08-28T07:22:59.816Z,7.44
2022-08-28T07:28:17.169Z,7.44
2022-08-28T07:33:34.732Z,7.79
2022-08-28T07:38:51.553Z,7.79
2022-08-28T07:44:08.998Z,7.64
2022-08-28T07:47:55.076Z,7.64
2022-08-28T07:53:04.223Z,7.47
2022-08-28T07:58:13.726Z,7.47
2022-08-28T08:03:23.460Z,7.75
2022-08-28T08:08:33.413Z,7.75
2022-08-28T08:13:42.620Z,7.67
2022-08-28T08:18:52.995Z,7.77
2022-08-28T08:24:03.424Z,7.77
2022-08-28T08:29:11.875Z,7.56
2022-08-28T08:34:21.005Z,7.56
2022-08-28T08:39:32.521Z,7.55
2022-08-28T08:44:39.226Z,7.55
2022-08-28T08:49:49.628Z,7.9
2022-08-28T08:54:59.638Z,7.9
2022-08-28T09:00:16.466Z,7.89
2022-08-28T09:05:16.996Z,7.89
2022-08-28T09:10:26.140Z,7.54
2022-08-28T09:20:59.563Z,7.68
2022-08-28T09:26:22.823Z,7.68
2022-08-28T09:31:33.594Z,7.57
2022-08-28T09:36:51.770Z,7.57
2022-08-28T09:42:08.681Z,7.62
2022-08-28T09:47:25.479Z,7.62
2022-08-28T09:58:01.799Z,7.57
2022-08-28T10:08:36.853Z,7.72
2022-08-28T10:13:50.119Z,7.72
2022-08-28T10:24:24.306Z,7.87
2022-08-28T10:51:03.772Z,7.47
2022-08-28T10:56:19.701Z,7.5
2022-08-28T11:01:38.977Z,7.5
2022-08-28T11:04:27.576Z,7.45
2022-08-28T11:09:01.627Z,7.45
2022-08-28T11:48:49.731Z,7.37
2022-08-28T11:54:20.219Z,7.44
2022-08-28T11:55:10.517Z,7.44
2022-08-28T11:58:58.014Z,7.44
2022-08-28T12:00:00.023Z,7.44
2022-08-28T12:05:08.687Z,7.33
2022-08-28T12:05:48.622Z,7.33
2022-08-28T12:10:28.097Z,7.47
2022-08-28T12:11:07.988Z,7.47
2022-08-28T12:15:44.019Z,7.47
2022-08-28T12:16:23.598Z,7.47
2022-08-28T12:21:07.504Z,7.37
2022-08-28T12:21:44.133Z,7.37
2022-08-28T12:26:24.148Z,7.37
2022-08-28T12:27:04.071Z,7.37
2022-08-28T12:31:45.869Z,7.31
2022-08-28T12:36:38.447Z,7.31
2022-08-28T12:41:47.725Z,7.28
2022-08-28T12:42:27.661Z,7.28
2022-08-28T12:47:07.739Z,7.28
2022-08-28T12:47:47.676Z,7.28
2022-08-28T12:52:30.294Z,7.42
2022-08-28T12:55:45.183Z,7.42
2022-08-28T13:01:01.367Z,7.42
2022-08-28T13:07:57.793Z,7.53
2022-08-28T13:08:46.252Z,7.53
2022-08-28T13:13:11.185Z,7.47
2022-08-28T13:22:02.136Z,7.56
2022-08-28T13:22:52.135Z,7.56
2022-08-28T13:27:18.305Z,7.56
2022-08-28T13:28:08.305Z,7.56
2022-08-28T13:32:33.245Z,7.34
2022-08-28T13:34:13.244Z,7.34
2022-08-28T13:38:10.761Z,7.34
2022-08-28T13:39:49.191Z,7.34
2022-08-28T13:43:24.100Z,7.49
2022-08-28T13:50:20.892Z,7.49
2022-08-28T13:51:12.131Z,7.49
2022-08-28T13:55:35.735Z,7.5
2022-08-28T13:56:25.732Z,7.5
2022-08-28T14:00:50.724Z,7.5
2022-08-28T14:01:42.292Z,7.5
2022-08-28T14:06:09.526Z,7.33
2022-08-28T14:06:55.493Z,7.33
2022-08-28T14:11:27.589Z,7.29
2022-08-28T14:12:10.416Z,7.29
2022-08-28T14:16:54.224Z,7.29
2022-08-28T14:17:33.901Z,7.29
2022-08-28T14:22:15.254Z,7.34
2022-08-28T14:22:55.181Z,7.34
2022-08-28T14:27:55.098Z,7.34
2022-08-28T14:28:35.031Z,7.34
2022-08-28T14:33:37.234Z,7.27
2022-08-28T14:34:17.010Z,7.27
2022-08-28T14:38:54.698Z,7.27
2022-08-28T14:39:34.395Z,7.27
2022-08-28T14:44:31.591Z,7.24
2022-08-28T14:45:11.513Z,7.24
2022-08-28T14:49:49.335Z,7.24
2022-08-28T14:51:19.022Z,7.24
2022-08-28T14:55:42.296Z,7.26
2022-08-28T14:58:02.232Z,7.26
2022-08-28T15:01:41.144Z,7.22
2022-08-28T15:03:19.749Z,7.22
2022-08-28T15:07:45.826Z,7.22
2022-08-28T15:08:35.824Z,7.22
2022-08-28T15:13:00.701Z,7.31
2022-08-28T15:13:50.703Z,7.31
2022-08-28T15:18:15.648Z,7.31
2022-08-28T15:23:30.464Z,7.25
2022-08-28T15:30:27.289Z,7.25
2022-08-28T15:31:17.320Z,7.25
2022-08-28T15:35:42.829Z,7.17
2022-08-28T15:41:01.324Z,7.17
2022-08-28T15:41:51.325Z,7.17
2022-08-28T15:46:14.599Z,7.54
2022-08-28T15:47:04.566Z,7.54
2022-08-28T15:51:29.342Z,7.32
2022-08-28T15:52:19.346Z,7.32
2022-08-28T15:56:46.140Z,7.32
2022-08-28T15:57:36.132Z,7.32
2022-08-28T16:02:02.345Z,7.25
2022-08-28T16:02:52.319Z,7.25
2022-08-28T16:07:17.326Z,7.25
2022-08-28T16:08:07.325Z,7.25
2022-08-28T16:12:35.087Z,7.39
2022-08-28T16:13:25.085Z,7.39
2022-08-28T16:18:15.763Z,7.39
2022-08-28T16:18:54.764Z,7.39
2022-08-28T16:24:01.486Z,7.31
2022-08-28T16:24:41.436Z,7.31
2022-08-28T16:29:23.407Z,7.31
2022-08-28T16:30:03.338Z,7.31
2022-08-28T16:40:04.982Z,7.34
2022-08-28T16:40:44.657Z,7.34
2022-08-28T16:45:23.402Z,7.32
2022-08-28T16:46:03.338Z,7.32
2022-08-28T16:50:44.061Z,7.32
2022-08-28T16:51:24.002Z,7.32
2022-08-28T16:56:01.497Z,7.44
2022-08-28T16:56:41.435Z,7.44
2022-08-28T17:01:21.244Z,7.22
2022-08-28T17:01:58.941Z,7.22
2022-08-28T17:06:40.835Z,7.22
2022-08-28T17:14:19.093Z,7.3
2022-08-28T17:16:39.069Z,7.3
2022-08-28T17:20:27.486Z,7.3
2022-08-28T17:22:07.481Z,7.3
2022-08-28T17:25:43.484Z,7.31
2022-08-28T17:27:23.610Z,7.31
2022-08-28T17:31:02.580Z,7.31
2022-08-28T17:32:42.523Z,7.31
2022-08-28T17:37:11.912Z,7.28
2022-08-28T17:38:01.913Z,7.28
2022-08-28T17:42:25.896Z,7.26
2022-08-28T17:43:15.896Z,7.26
2022-08-28T17:47:42.804Z,7.26
2022-08-28T17:53:12.329Z,7.26
2022-08-28T17:58:14.413Z,7.25
2022-08-28T17:59:04.296Z,7.25
2022-08-28T18:03:31.105Z,7.3
2022-08-28T18:04:24.101Z,7.3
2022-08-28T18:08:47.402Z,7.3
2022-08-28T18:09:37.397Z,7.3
2022-08-28T18:14:04.126Z,7.43
2022-08-28T18:14:54.132Z,7.43
2022-08-28T18:19:19.725Z,7.43
2022-08-28T18:20:09.726Z,7.43
2022-08-28T18:24:35.723Z,7.23
2022-08-28T18:25:25.722Z,7.23
2022-08-28T18:29:53.172Z,7.23
2022-08-28T18:30:43.173Z,7.23
2022-08-28T18:35:10.032Z,7.29
2022-08-28T18:36:00.044Z,7.29
2022-08-28T18:40:26.967Z,7.29
2022-08-28T18:41:16.924Z,7.29
2022-08-28T18:45:43.643Z,7.29
2022-08-28T18:56:17.161Z,7.29
2022-08-28T19:01:34.172Z,7.22
2022-08-28T19:02:24.233Z,7.22
2022-08-28T19:06:50.126Z,7.28
2022-08-28T19:07:40.125Z,7.28
2022-08-28T19:12:32.840Z,7.47
2022-08-28T19:15:27.260Z,7.47
2022-08-28T19:20:42.145Z,7.47
2022-08-28T19:21:32.150Z,7.47
2022-08-28T19:25:57.674Z,7.29
2022-08-28T19:26:47.663Z,7.29
2022-08-28T19:31:13.250Z,7.29
2022-08-28T19:32:03.218Z,7.29
2022-08-28T19:36:29.342Z,7.38
2022-08-28T19:37:19.335Z,7.38
2022-08-28T19:41:44.237Z,7.38
2022-08-28T19:42:34.246Z,7.38
2022-08-28T19:47:00.411Z,7.18
2022-08-28T19:47:50.415Z,7.18
2022-08-28T19:52:17.850Z,7.18
2022-08-28T19:54:47.856Z,7.18
2022-08-28T19:59:37.734Z,7.18
2022-08-28T20:00:27.733Z,7.18
2022-08-28T20:04:55.090Z,7.39
2022-08-28T20:05:45.083Z,7.39
2022-08-28T20:10:11.715Z,7.39
2022-08-28T20:11:01.722Z,7.39
2022-08-28T20:15:28.087Z,7.27
2022-08-28T20:16:18.079Z,7.27
2022-08-28T20:20:44.836Z,7.27
2022-08-28T20:21:38.193Z,7.27
2022-08-28T20:26:06.901Z,7.36
2022-08-28T20:26:52.927Z,7.36
2022-08-28T20:31:41.187Z,7.36
2022-08-28T20:32:53.796Z,7.36
2022-08-28T20:37:54.135Z,7.14
2022-08-28T20:45:25.964Z,7.05
2022-08-28T20:47:51.878Z,7.05
2022-08-28T20:52:46.774Z,7.05
2022-08-28T20:53:38.140Z,7.05
2022-08-28T20:58:04.045Z,7.24
2022-08-28T20:58:54.043Z,7.24
2022-08-28T21:03:21.746Z,7.24
2022-08-28T21:04:11.750Z,7.24
2022-08-28T21:08:38.405Z,7.14
2022-08-28T21:09:33.548Z,7.14
2022-08-28T21:13:54.885Z,7.14
2022-08-28T21:14:44.886Z,7.14
2022-08-28T21:19:17.425Z,7.14
2022-08-28T21:20:00.622Z,7.14
2022-08-28T21:24:28.687Z,7.02
2022-08-28T21:25:18.680Z,7.02
2022-08-28T21:29:45.568Z,7.02
2022-08-28T21:30:35.610Z,7.02
2022-08-28T21:35:02.911Z,7.08
2022-08-28T21:40:19.219Z,7.08
2022-08-28T21:44:05.413Z,7.12
2022-08-28T21:46:25.323Z,7.12
2022-08-28T21:49:22.851Z,7.12
2022-08-28T21:56:09.806Z,6.95
2022-08-28T21:56:59.794Z,6.95
2022-08-28T22:01:28.267Z,6.95
2022-08-28T22:02:18.246Z,6.95
2022-08-28T22:06:43.723Z,7.15
2022-08-28T22:07:33.723Z,7.15
2022-08-28T22:12:01.169Z,7.15
2022-08-28T22:12:51.167Z,7.15
2022-08-28T22:17:17.324Z,7.13
2022-08-28T22:23:04.662Z,7.13
2022-08-28T22:28:13.940Z,6.93
2022-08-28T22:32:25.566Z,6.93
2022-08-28T22:36:48.197Z,6.99
2022-08-28T22:39:08.143Z,6.99
2022-08-28T22:43:44.042Z,6.81
2022-08-28T22:44:34.055Z,6.81
2022-08-28T22:49:00.763Z,6.81
2022-08-28T22:52:13.340Z,6.81
2022-08-28T22:57:28.861Z,6.95
2022-08-28T22:58:18.853Z,6.95
2022-08-28T23:02:44.430Z,6.95
2022-08-28T23:03:34.484Z,6.95
2022-08-28T23:07:10.541Z,7.06
2022-08-28T23:10:48.543Z,7.06
2022-08-28T23:15:26.620Z,7.09
2022-08-28T23:21:31.719Z,7.09
2022-08-28T23:26:41.587Z,6.97
2022-08-28T23:29:08.788Z,6.97
2022-08-28T23:34:24.460Z,6.88
2022-08-28T23:35:14.470Z,6.88
2022-08-28T23:40:06.286Z,6.88
2022-08-28T23:40:56.225Z,6.88
2022-08-28T23:45:25.737Z,6.91
2022-08-28T23:46:15.746Z,6.91
2022-08-28T23:50:34.088Z,6.91
2022-08-28T23:51:24.093Z,6.91
2022-08-28T23:55:42.933Z,7.03
2022-08-28T23:56:22.859Z,7.03
